Time;durP1;ratioP1;P1;durP2;ratioP2;P2;SDS_P1;SDS_P2;PMS_P1;PMS_P2;Temp;Humidity;BMP_temperature;BMP_pressure;BME280_temperature;BME280_humidity;BME280_pressure;Samples;Min_cycle;Max_cycle;Signal;HPM_P1;HPM_P2
2022/09/27 00:00:38;;;;;;;3.88;1.10;;;11.20;99.90;;;;;;5045846;28;20029;-35
2022/09/27 00:03:04;;;;;;;5.13;1.30;;;11.10;99.90;;;;;;5046684;28;20017;-36
2022/09/27 00:05:29;;;;;;;3.22;1.02;;;11.10;99.90;;;;;;5046112;28;20117;-35
2022/09/27 00:07:55;;;;;;;3.53;1.10;;;11.00;99.90;;;;;;5045117;28;20108;-35
2022/09/27 00:10:21;;;;;;;3.28;1.05;;;11.00;99.90;;;;;;5046067;28;20060;-36
2022/09/27 00:12:47;;;;;;;4.32;0.95;;;11.00;99.90;;;;;;5046330;28;20445;-35
2022/09/27 00:15:13;;;;;;;3.47;1.02;;;11.00;99.90;;;;;;5044681;28;20135;-36
2022/09/27 00:17:39;;;;;;;4.30;0.80;;;10.90;99.90;;;;;;5046675;28;20033;-35
2022/09/27 00:20:06;;;;;;;4.18;1.10;;;10.90;99.90;;;;;;5046417;28;20047;-36
2022/09/27 00:22:32;;;;;;;2.08;0.90;;;10.90;99.90;;;;;;5045630;28;20032;-35
2022/09/27 00:24:58;;;;;;;2.88;0.70;;;10.90;99.90;;;;;;5045998;28;20009;-35
2022/09/27 00:27:25;;;;;;;3.50;0.93;;;10.90;99.90;;;;;;5045762;28;20431;-35
2022/09/27 00:29:51;;;;;;;3.25;1.05;;;10.90;99.90;;;;;;5045658;28;20048;-36
2022/09/27 00:32:17;;;;;;;2.97;0.90;;;10.90;99.90;;;;;;5044992;28;20021;-35
2022/09/27 00:34:43;;;;;;;2.25;0.85;;;10.90;99.90;;;;;;5045035;28;20031;-35
2022/09/27 00:37:08;;;;;;;4.63;1.02;;;10.90;99.90;;;;;;5045646;28;20024;-36
2022/09/27 00:39:34;;;;;;;3.95;1.00;;;10.80;99.90;;;;;;5045753;28;20029;-33
2022/09/27 00:42:00;;;;;;;1.83;0.80;;;10.90;99.90;;;;;;5045019;28;20555;-36
2022/09/27 00:44:25;;;;;;;1.98;0.77;;;10.90;99.90;;;;;;5045521;28;20054;-35
2022/09/27 00:47:14;;;;;;;2.35;0.80;;;10.90;99.90;;;;;;5044387;28;20017;-35
2022/09/27 00:49:46;;;;;;;3.35;0.57;;;10.90;99.90;;;;;;5029546;28;20056;-35
2022/09/27 00:52:24;;;;;;;2.72;0.80;;;10.80;99.90;;;;;;5045374;28;20047;-35
2022/09/27 00:54:57;;;;;;;4.07;0.80;;;10.80;99.90;;;;;;5045696;28;20025;-36
2022/09/27 00:57:23;;;;;;;2.85;0.73;;;10.80;99.90;;;;;;5043888;28;20412;-36
2022/09/27 01:00:14;;;;;;;3.53;1.55;;;10.80;99.90;;;;;;5045534;28;20021;-35
2022/09/27 01:02:44;;;;;;;3.30;1.77;;;10.80;99.90;;;;;;5044758;28;20061;-36
2022/09/27 01:05:13;;;;;;;2.30;0.90;;;10.80;99.90;;;;;;5043542;28;20033;-36
2022/09/27 01:07:38;;;;;;;3.63;0.70;;;10.70;99.90;;;;;;5045152;28;20025;-36
2022/09/27 01:10:06;;;;;;;6.55;1.00;;;10.70;99.90;;;;;;5044218;28;20037;-36
2022/09/27 01:12:52;;;;;;;2.38;0.70;;;10.60;99.90;;;;;;5034049;28;20060;-35
2022/09/27 01:15:42;;;;;;;4.82;1.13;;;10.60;99.90;;;;;;5044419;28;20055;-36
2022/09/27 01:18:22;;;;;;;3.55;0.60;;;10.60;99.90;;;;;;5044160;28;20074;-35
2022/09/27 01:21:19;;;;;;;2.25;0.52;;;10.50;99.90;;;;;;5044938;28;20089;-35
2022/09/27 01:24:00;;;;;;;6.47;0.88;;;10.50;99.90;;;;;;5045240;28;20033;-36
2022/09/27 01:27:03;;;;;;;2.10;0.70;;;10.50;99.90;;;;;;5044564;28;20392;-34
2022/09/27 01:29:59;;;;;;;3.58;0.70;;;10.50;99.90;;;;;;5024413;28;20092;-36
2022/09/27 01:32:36;;;;;;;3.17;0.63;;;10.50;99.90;;;;;;5042457;28;20059;-36
2022/09/27 01:35:17;;;;;;;3.63;0.57;;;10.50;99.90;;;;;;5045026;28;20052;-36
2022/09/27 01:38:01;;;;;;;1.23;0.50;;;10.40;99.90;;;;;;5044406;28;20017;-35
2022/09/27 01:40:48;;;;;;;2.35;0.60;;;10.40;99.90;;;;;;5044082;28;20028;-35
2022/09/27 01:43:27;;;;;;;4.13;0.73;;;10.40;99.90;;;;;;5042142;28;20025;-35
2022/09/27 01:46:11;;;;;;;2.78;0.50;;;10.40;99.90;;;;;;5043016;28;20865;-36
2022/09/27 01:48:42;;;;;;;3.30;0.60;;;10.40;99.90;;;;;;5044698;28;20048;-35
2022/09/27 01:51:30;;;;;;;1.88;0.50;;;10.30;99.90;;;;;;5044071;28;20025;-35
2022/09/27 01:54:01;;;;;;;2.67;0.65;;;10.30;99.90;;;;;;5033903;28;20071;-35
2022/09/27 01:56:34;;;;;;;2.25;0.60;;;10.30;99.90;;;;;;5043939;28;20025;-33
2022/09/27 01:58:59;;;;;;;;;;;10.30;99.90;;;;;;5044872;28;20120;-35
2022/09/27 02:01:28;;;;;;;2.85;0.50;;;10.30;99.90;;;;;;5043052;28;19999;-35
2022/09/27 02:03:57;;;;;;;3.03;0.60;;;10.20;99.90;;;;;;5044792;28;20343;-35
2022/09/27 02:06:32;;;;;;;1.48;0.60;;;10.20;99.90;;;;;;5043276;28;20379;-35
2022/09/27 02:09:00;;;;;;;2.40;0.50;;;10.20;99.90;;;;;;5040615;28;20147;-34
2022/09/27 02:11:27;;;;;;;2.00;0.40;;;10.20;99.90;;;;;;5043814;28;20347;-34
2022/09/27 02:14:23;;;;;;;2.38;0.60;;;10.10;99.90;;;;;;5043124;28;20098;-34
2022/09/27 02:17:03;;;;;;;2.40;0.93;;;10.10;99.90;;;;;;5044618;28;20428;-34
2022/09/27 02:20:02;;;;;;;2.45;0.40;;;10.10;99.90;;;;;;5041806;28;20518;-34
2022/09/27 02:22:53;;;;;;;3.17;0.60;;;10.10;99.90;;;;;;5043375;28;20548;-34
2022/09/27 02:25:22;;;;;;;3.45;0.73;;;10.00;99.90;;;;;;5035960;28;20048;-35
2022/09/27 02:27:58;;;;;;;3.35;0.57;;;10.00;99.90;;;;;;5043573;28;20040;-36
2022/09/27 02:30:24;;;;;;;2.92;0.60;;;10.00;99.90;;;;;;5043802;28;20377;-36
2022/09/27 02:32:50;;;;;;;2.40;1.05;;;10.00;99.90;;;;;;5044279;28;20528;-35
2022/09/27 02:35:24;;;;;;;4.60;0.50;;;10.00;99.90;;;;;;5031701;28;20029;-35
2022/09/27 02:37:50;;;;;;;1.75;0.50;;;9.90;99.90;;;;;;5044469;28;20024;-35
2022/09/27 02:40:16;;;;;;;1.50;0.52;;;9.90;99.90;;;;;;5043735;28;20036;-35
2022/09/27 02:42:43;;;;;;;2.97;0.57;;;9.90;99.90;;;;;;5043646;28;20021;-35
2022/09/27 02:45:11;;;;;;;3.08;0.60;;;9.90;99.90;;;;;;5043729;28;20029;-35
2022/09/27 02:48:06;;;;;;;1.33;0.50;;;9.90;99.90;;;;;;5044187;28;20033;-35
2022/09/27 02:50:35;;;;;;;3.33;0.55;;;9.90;99.90;;;;;;5038110;28;20126;-35
2022/09/27 02:53:07;;;;;;;3.20;0.30;;;9.90;99.90;;;;;;5043805;28;20040;-35
2022/09/27 02:56:01;;;;;;;1.40;0.30;;;9.90;99.90;;;;;;5040116;28;20020;-35
2022/09/27 02:59:01;;;;;;;1.85;0.50;;;9.90;99.90;;;;;;5047355;28;20520;-35
2022/09/27 03:01:37;;;;;;;3.55;0.50;;;9.90;99.90;;;;;;5038462;28;20172;-36
2022/09/27 03:04:14;;;;;;;6.60;0.93;;;9.90;99.90;;;;;;5046349;28;20614;-35
2022/09/27 03:06:43;;;;;;;1.23;0.40;;;9.80;99.90;;;;;;5047702;28;20029;-35
2022/09/27 03:09:20;;;;;;;1.70;0.40;;;9.80;99.90;;;;;;5046416;28;20028;-35
2022/09/27 03:11:46;;;;;;;2.28;0.43;;;9.80;99.90;;;;;;5046288;28;20430;-35
2022/09/27 03:14:11;;;;;;;2.05;0.50;;;9.80;99.90;;;;;;5047285;28;20023;-35
2022/09/27 03:16:37;;;;;;;3.38;0.60;;;9.80;99.90;;;;;;5046516;28;20099;-34
2022/09/27 03:19:03;;;;;;;2.28;0.60;;;9.80;99.90;;;;;;5047314;28;20440;-34
2022/09/27 03:21:28;;;;;;;2.97;0.52;;;9.80;99.90;;;;;;5046855;28;20028;-35
2022/09/27 03:23:54;;;;;;;2.17;0.40;;;9.80;99.90;;;;;;5046423;28;20448;-35
2022/09/27 03:26:20;;;;;;;1.98;0.60;;;9.80;99.90;;;;;;5046206;28;20017;-36
2022/09/27 03:28:45;;;;;;;1.80;0.52;;;9.90;99.90;;;;;;5046925;28;20044;-36
2022/09/27 03:31:11;;;;;;;3.05;0.82;;;9.90;99.90;;;;;;5045581;28;20044;-35
2022/09/27 03:33:36;;;;;;;2.00;0.60;;;9.90;99.90;;;;;;5047008;28;20029;-36
2022/09/27 03:36:03;;;;;;;2.50;0.80;;;9.90;99.90;;;;;;5046921;28;20033;-34
2022/09/27 03:38:28;;;;;;;3.28;0.90;;;9.90;99.90;;;;;;5045513;28;20025;-34
2022/09/27 03:40:54;;;;;;;2.80;0.80;;;9.90;99.90;;;;;;5047008;28;20390;-36
2022/09/27 03:43:19;;;;;;;4.13;1.10;;;9.90;99.90;;;;;;5046245;28;20021;-35
2022/09/27 03:45:46;;;;;;;3.03;1.08;;;9.80;99.90;;;;;;5046741;28;20036;-35
2022/09/27 03:48:11;;;;;;;2.90;0.95;;;9.80;99.90;;;;;;5046776;28;20025;-35
2022/09/27 03:50:37;;;;;;;3.58;1.05;;;9.80;99.90;;;;;;5046810;28;20029;-34
2022/09/27 03:53:02;;;;;;;3.83;1.08;;;9.80;99.90;;;;;;5046534;28;20064;-35
2022/09/27 03:55:28;;;;;;;2.88;0.80;;;9.90;99.90;;;;;;5046540;28;20021;-35
2022/09/27 03:57:53;;;;;;;3.55;1.05;;;9.80;99.90;;;;;;5046642;28;20373;-34
2022/09/27 04:00:19;;;;;;;3.50;1.10;;;9.80;99.90;;;;;;5045494;28;20078;-35
2022/09/27 04:02:45;;;;;;;3.25;0.82;;;9.90;99.90;;;;;;5043197;28;20037;-35
2022/09/27 04:05:10;;;;;;;4.72;0.80;;;9.80;99.90;;;;;;5046294;28;20420;-35
2022/09/27 04:07:36;;;;;;;2.83;0.90;;;9.80;99.90;;;;;;5044907;28;20053;-36
2022/09/27 04:10:03;;;;;;;3.60;0.90;;;9.90;99.90;;;;;;5046854;28;20082;-37
2022/09/27 04:12:29;;;;;;;3.80;0.80;;;9.90;99.90;;;;;;5045422;28;20040;-36
2022/09/27 04:14:54;;;;;;;2.20;0.60;;;10.00;99.90;;;;;;5045819;28;20016;-36
2022/09/27 04:17:20;;;;;;;2.72;0.70;;;10.00;99.90;;;;;;5046223;28;20037;-35
2022/09/27 04:19:45;;;;;;;6.80;1.42;;;10.00;99.90;;;;;;5045506;28;20031;-36
2022/09/27 04:22:12;;;;;;;3.58;1.30;;;10.10;99.90;;;;;;5045962;28;20021;-35
2022/09/27 04:24:38;;;;;;;4.60;1.20;;;10.10;99.90;;;;;;5046140;28;20108;-36
2022/09/27 04:27:03;;;;;;;5.82;0.98;;;10.10;99.90;;;;;;5045516;28;20199;-35
2022/09/27 04:29:29;;;;;;;4.18;1.30;;;10.10;99.90;;;;;;5046135;28;20040;-37
2022/09/27 04:31:54;;;;;;;2.53;0.75;;;10.10;99.90;;;;;;5046479;28;20048;-37
2022/09/27 04:36:25;;;;;;;3.25;1.08;;;10.10;99.90;;;;;;5044949;28;20036;-36
2022/09/27 04:37:06;;;;;;;5.05;1.23;;;10.10;99.90;;;;;;5045917;28;20033;-36
2022/09/27 04:39:32;;;;;;;5.07;1.08;;;10.10;99.90;;;;;;5045707;28;20071;-36
2022/09/27 04:41:57;;;;;;;5.10;1.10;;;10.10;99.90;;;;;;5044869;28;20120;-36
2022/09/27 04:44:23;;;;;;;7.30;1.58;;;10.00;99.90;;;;;;5045670;28;20369;-36
2022/09/27 04:46:48;;;;;;;5.45;1.33;;;10.00;99.90;;;;;;5045504;28;20525;-35
2022/09/27 04:49:14;;;;;;;2.28;1.00;;;10.00;99.90;;;;;;5044045;28;20024;-35
2022/09/27 04:51:39;;;;;;;2.65;1.10;;;9.90;99.90;;;;;;5046222;28;20033;-36
2022/09/27 04:54:05;;;;;;;6.22;1.45;;;9.90;99.90;;;;;;5045198;28;20025;-35
2022/09/27 04:56:31;;;;;;;4.80;1.70;;;9.90;99.90;;;;;;5044917;28;20051;-35
2022/09/27 04:58:57;;;;;;;3.72;1.23;;;9.80;99.90;;;;;;5045939;28;20033;-36
2022/09/27 05:01:23;;;;;;;5.95;1.52;;;9.80;99.90;;;;;;5044298;28;20420;-35
2022/09/27 05:03:49;;;;;;;6.47;1.38;;;9.80;99.90;;;;;;5045068;28;20029;-36
2022/09/27 05:06:14;;;;;;;2.67;1.10;;;9.80;99.90;;;;;;5045265;28;20542;-37
2022/09/27 05:08:40;;;;;;;5.20;1.33;;;9.70;99.90;;;;;;5045359;28;20518;-35
2022/09/27 05:11:05;;;;;;;5.32;1.27;;;9.80;99.90;;;;;;5044870;28;20628;-36
2022/09/27 05:13:31;;;;;;;5.15;1.13;;;9.80;99.90;;;;;;5044721;28;20033;-35
2022/09/27 05:16:02;;;;;;;4.40;1.10;;;9.80;99.90;;;;;;5045810;28;20032;-36
2022/09/27 05:18:28;;;;;;;3.80;1.30;;;9.70;99.90;;;;;;5044991;28;20428;-35
2022/09/27 05:20:55;;;;;;;4.13;1.02;;;9.70;99.90;;;;;;5045291;28;20033;-35
2022/09/27 05:23:21;;;;;;;5.75;1.23;;;9.70;99.90;;;;;;5044337;28;20719;-36
2022/09/27 05:25:46;;;;;;;5.45;1.48;;;9.70;99.90;;;;;;5044996;28;20028;-34
2022/09/27 05:28:12;;;;;;;5.60;1.15;;;9.70;99.90;;;;;;5044780;28;20072;-35
2022/09/27 05:30:38;;;;;;;3.45;1.20;;;9.70;99.90;;;;;;5044682;28;20378;-34
2022/09/27 05:33:03;;;;;;;4.90;1.20;;;9.70;99.90;;;;;;5045395;28;20029;-33
2022/09/27 05:35:29;;;;;;;3.58;0.80;;;9.70;99.90;;;;;;5044202;28;20117;-36
2022/09/27 05:37:57;;;;;;;4.07;0.90;;;9.70;99.90;;;;;;5044563;28;20416;-35
2022/09/27 05:40:24;;;;;;;3.83;0.80;;;9.70;99.90;;;;;;5044660;28;20025;-34
2022/09/27 05:42:53;;;;;;;2.33;1.05;;;9.70;99.90;;;;;;5043144;28;20047;-35
2022/09/27 05:45:20;;;;;;;2.90;0.93;;;9.60;99.90;;;;;;5049145;28;20057;-35
2022/09/27 05:47:54;;;;;;;3.53;1.23;;;9.60;99.90;;;;;;5044912;28;20445;-35
2022/09/27 05:50:19;;;;;;;2.75;0.70;;;9.60;99.90;;;;;;5042433;28;20040;-35
2022/09/27 05:52:45;;;;;;;2.88;0.80;;;9.60;99.90;;;;;;5044008;28;20100;-34
2022/09/27 05:55:10;;;;;;;2.13;0.82;;;9.50;99.90;;;;;;5043458;28;20538;-34
2022/09/27 05:57:36;;;;;;;3.85;0.93;;;9.60;99.90;;;;;;5043654;28;20355;-35
2022/09/27 06:00:02;;;;;;;4.75;0.95;;;9.60;99.90;;;;;;5042972;28;20021;-36
2022/09/27 06:02:28;;;;;;;3.88;1.17;;;9.60;99.90;;;;;;5043201;28;20047;-35
2022/09/27 06:04:54;;;;;;;3.63;0.88;;;9.60;99.90;;;;;;5043420;28;20029;-36
2022/09/27 06:07:19;;;;;;;2.92;1.10;;;9.70;99.90;;;;;;5042387;28;20052;-34
2022/09/27 06:09:45;;;;;;;3.92;1.30;;;9.70;99.90;;;;;;5043043;28;20392;-35
2022/09/27 06:12:10;;;;;;;3.13;1.60;;;9.70;99.90;;;;;;5043252;28;20476;-35
2022/09/27 06:14:37;;;;;;;2.83;0.90;;;9.80;99.90;;;;;;5042655;28;20357;-35
2022/09/27 06:17:03;;;;;;;1.83;1.02;;;9.80;99.90;;;;;;5042567;28;20017;-35
2022/09/27 06:19:29;;;;;;;3.88;0.90;;;9.90;99.90;;;;;;5042154;28;20044;-35
2022/09/27 06:21:57;;;;;;;2.38;0.90;;;9.90;99.90;;;;;;5043006;28;20032;-36
2022/09/27 06:24:23;;;;;;;1.23;0.80;;;9.90;99.90;;;;;;5023768;28;20098;-35
2022/09/27 06:26:48;;;;;;;2.28;0.80;;;9.90;99.90;;;;;;5038417;28;20104;-35
2022/09/27 06:29:14;;;;;;;3.05;0.93;;;9.90;99.90;;;;;;5043329;28;20044;-35
2022/09/27 06:31:39;;;;;;;3.60;1.13;;;10.00;99.90;;;;;;5045851;28;20021;-36
2022/09/27 06:34:05;;;;;;;1.27;0.80;;;10.00;99.90;;;;;;5048082;28;20174;-35
2022/09/27 06:36:32;;;;;;;2.90;0.80;;;10.00;99.90;;;;;;5047537;28;20186;-34
2022/09/27 06:39:00;;;;;;;4.50;1.02;;;10.00;99.90;;;;;;5047786;28;20036;-35
2022/09/27 06:41:26;;;;;;;1.30;0.60;;;10.10;99.90;;;;;;5046442;28;20031;-35
2022/09/27 06:43:51;;;;;;;5.85;1.48;;;10.10;99.90;;;;;;5047953;28;20036;-36
2022/09/27 06:46:17;;;;;;;3.70;1.27;;;10.10;99.90;;;;;;5047122;28;20035;-36
2022/09/27 06:48:42;;;;;;;3.28;0.85;;;10.10;99.90;;;;;;5047259;28;20047;-35
2022/09/27 06:51:08;;;;;;;1.88;1.00;;;10.20;99.90;;;;;;5046474;28;20021;-36
2022/09/27 06:53:33;;;;;;;2.92;0.98;;;10.30;99.90;;;;;;5047842;28;20392;-37
2022/09/27 06:56:00;;;;;;;3.88;1.50;;;10.30;99.90;;;;;;5046383;28;20507;-37
2022/09/27 07:01:11;;;;;;;2.05;1.00;;;10.40;99.90;;;;;;5046475;28;20088;-36
2022/09/27 07:03:40;;;;;;;6.60;1.30;;;10.50;99.90;;;;;;5046039;28;20056;-36
2022/09/27 07:06:10;;;;;;;2.95;1.17;;;10.60;99.90;;;;;;5047580;28;20029;-36
2022/09/27 07:08:37;;;;;;;3.47;1.15;;;10.70;99.90;;;;;;5046188;28;20107;-36
2022/09/27 07:11:05;;;;;;;3.83;0.88;;;10.80;99.90;;;;;;5047582;28;20032;-34
2022/09/27 07:13:33;;;;;;;2.40;1.25;;;10.80;99.90;;;;;;5047006;28;20556;-35
2022/09/27 07:16:02;;;;;;;3.63;1.30;;;10.80;99.90;;;;;;5026234;28;20053;-36
2022/09/27 07:18:28;;;;;;;1.63;1.08;;;10.70;99.90;;;;;;5041195;28;20639;-35
2022/09/27 07:20:53;;;;;;;2.35;1.20;;;10.70;99.90;;;;;;5046610;28;20469;-35
2022/09/27 07:23:19;;;;;;;4.10;1.08;;;10.70;99.90;;;;;;5045895;28;20198;-34
2022/09/27 07:25:46;;;;;;;2.55;1.10;;;10.70;99.90;;;;;;5047316;28;20656;-34
2022/09/27 07:28:17;;;;;;;2.97;1.02;;;10.70;99.90;;;;;;5045536;28;20095;-36
2022/09/27 07:30:43;;;;;;;3.40;0.98;;;10.70;99.90;;;;;;5045901;28;20059;-35
2022/09/27 07:33:09;;;;;;;2.58;0.93;;;10.80;99.90;;;;;;5046168;28;20446;-34
2022/09/27 07:35:38;;;;;;;2.95;1.38;;;10.80;99.90;;;;;;5047148;28;20040;-35
2022/09/27 07:38:07;;;;;;;3.20;0.93;;;10.80;99.90;;;;;;5046021;28;20408;-34
2022/09/27 07:40:34;;;;;;;3.42;1.10;;;10.90;99.90;;;;;;5046439;28;20025;-35
2022/09/27 07:43:00;;;;;;;2.95;1.02;;;10.90;99.90;;;;;;5047229;28;20021;-35
2022/09/27 07:45:27;;;;;;;3.45;1.15;;;11.00;99.90;;;;;;5045099;28;20465;-35
2022/09/27 07:47:52;;;;;;;2.83;1.00;;;11.10;99.90;;;;;;5046149;28;20381;-36
2022/09/27 07:50:19;;;;;;;3.28;1.17;;;11.20;99.90;;;;;;5045988;28;20078;-35
2022/09/27 07:52:47;;;;;;;3.38;1.10;;;11.20;99.90;;;;;;5045609;28;20456;-37
2022/09/27 07:55:13;;;;;;;1.88;0.57;;;11.30;99.90;;;;;;5046068;28;20025;-35
2022/09/27 07:57:40;;;;;;;2.70;0.93;;;11.30;99.90;;;;;;5046291;28;20071;-34
2022/09/27 08:00:11;;;;;;;3.55;1.27;;;11.30;99.90;;;;;;5045693;28;20434;-34
2022/09/27 08:02:37;;;;;;;3.38;0.93;;;11.30;99.90;;;;;;5026720;28;20079;-36
2022/09/27 08:05:06;;;;;;;2.47;0.95;;;11.30;99.90;;;;;;5040247;28;20477;-35
2022/09/27 08:07:31;;;;;;;4.15;0.90;;;11.20;99.90;;;;;;5046437;28;20538;-35
2022/09/27 08:09:57;;;;;;;3.15;0.70;;;11.30;99.90;;;;;;5045373;28;20041;-35
2022/09/27 08:12:23;;;;;;;1.73;0.70;;;11.30;99.90;;;;;;5044711;28;20103;-35
2022/09/27 08:14:49;;;;;;;1.92;0.75;;;11.40;99.90;;;;;;5046139;28;20304;-34
2022/09/27 08:17:16;;;;;;;2.15;0.82;;;11.40;99.90;;;;;;5045774;28;20090;-34
2022/09/27 08:19:43;;;;;;;2.13;0.73;;;11.50;99.90;;;;;;5045675;28;20530;-34
2022/09/27 08:22:10;;;;;;;2.88;1.33;;;11.50;99.90;;;;;;5044045;28;20132;-35
2022/09/27 08:24:36;;;;;;;3.78;1.45;;;11.50;99.90;;;;;;5046459;28;20025;-34
2022/09/27 08:27:02;;;;;;;1.98;1.20;;;11.60;99.90;;;;;;5033946;28;20224;-34
2022/09/27 08:29:27;;;;;;;2.30;1.17;;;11.60;99.90;;;;;;5045089;28;20344;-34
2022/09/27 08:31:53;;;;;;;3.72;1.45;;;11.60;99.90;;;;;;5046159;28;20041;-34
2022/09/27 08:34:24;;;;;;;2.63;1.00;;;11.50;99.90;;;;;;5045062;28;20035;-34
2022/09/27 08:36:49;;;;;;;2.67;1.38;;;11.50;99.90;;;;;;5045131;28;20023;-35
2022/09/27 08:39:15;;;;;;;3.58;1.20;;;11.40;99.90;;;;;;5045301;28;20032;-35
2022/09/27 08:41:54;;;;;;;2.00;1.25;;;11.40;99.90;;;;;;5044183;28;20071;-35
2022/09/27 08:44:49;;;;;;;1.70;1.00;;;11.40;99.90;;;;;;5045009;28;20453;-36
2022/09/27 08:47:42;;;;;;;2.65;0.80;;;11.40;99.90;;;;;;5043586;28;20044;-35
2022/09/27 08:50:18;;;;;;;4.82;1.20;;;11.50;99.90;;;;;;5042534;28;20451;-36
2022/09/27 08:52:52;;;;;;;1.75;1.05;;;11.50;99.90;;;;;;5045276;28;20025;-36
2022/09/27 08:55:38;;;;;;;2.63;1.08;;;11.60;99.90;;;;;;5043462;28;20024;-36
2022/09/27 08:58:31;;;;;;;1.90;1.35;;;11.70;99.90;;;;;;5034374;28;20118;-34
2022/09/27 09:01:02;;;;;;;2.38;1.38;;;11.80;99.90;;;;;;5045065;28;20037;-35
2022/09/27 09:03:30;;;;;;;1.35;1.10;;;11.90;99.90;;;;;;5044043;28;20112;-35
2022/09/27 09:06:36;;;;;;;2.15;0.98;;;12.00;99.90;;;;;;5044644;28;20040;-34
2022/09/27 09:09:28;;;;;;;1.20;0.90;;;12.10;99.90;;;;;;5037766;28;20120;-34
2022/09/27 09:14:50;;;;;;;1.83;0.80;;;12.20;99.90;;;;;;5045108;28;20570;-36
2022/09/27 09:17:24;;;;;;;1.42;0.70;;;12.20;99.90;;;;;;5043393;28;20123;-35
2022/09/27 09:20:27;;;;;;;1.08;0.70;;;12.30;99.90;;;;;;5044737;28;20120;-35
2022/09/27 09:23:16;;;;;;;0.82;0.50;;;12.30;99.90;;;;;;5044612;28;20033;-36
2022/09/27 09:25:59;;;;;;;2.05;0.80;;;12.30;99.90;;;;;;5045359;28;20032;-36
2022/09/27 09:29:01;;;;;;;4.50;1.00;;;12.20;99.90;;;;;;5043653;28;20527;-36
2022/09/27 09:31:42;;;;;;;3.38;1.27;;;12.10;99.90;;;;;;5043701;28;20064;-36
2022/09/27 09:34:49;;;;;;;1.98;1.30;;;12.00;99.90;;;;;;5044381;28;20389;-36
2022/09/27 09:37:18;;;;;;;3.85;1.40;;;12.00;99.90;;;;;;5030716;28;20037;-35
2022/09/27 09:39:46;;;;;;;2.17;1.48;;;11.90;99.90;;;;;;5045467;28;20035;-37
2022/09/27 09:42:28;;;;;;;2.80;1.80;;;11.80;99.90;;;;;;5043976;28;20448;-35
2022/09/27 09:45:21;;;;;;;2.88;1.52;;;11.70;99.90;;;;;;5035558;28;20028;-36
2022/09/27 09:48:19;;;;;;;3.78;1.40;;;11.60;99.90;;;;;;5044800;28;20465;-36
2022/09/27 09:50:48;;;;;;;2.97;1.40;;;11.60;99.90;;;;;;5043995;28;20036;-36
2022/09/27 09:53:28;;;;;;;2.13;1.17;;;11.50;99.90;;;;;;5043410;28;20028;-36
2022/09/27 09:56:14;;;;;;;1.83;0.90;;;11.50;99.90;;;;;;5044226;28;20533;-36
2022/09/27 09:59:03;;;;;;;3.25;0.80;;;11.50;99.90;;;;;;5044315;28;20200;-37
2022/09/27 10:01:34;;;;;;;1.77;0.80;;;11.50;99.90;;;;;;5044262;28;20057;-34
2022/09/27 10:03:59;;;;;;;1.67;0.70;;;11.50;99.90;;;;;;5044623;28;20108;-36
2022/09/27 10:06:30;;;;;;;3.05;0.75;;;11.60;99.90;;;;;;5044838;28;20108;-36
2022/09/27 10:08:56;;;;;;;2.83;0.90;;;11.60;99.90;;;;;;5049028;28;20380;-36
2022/09/27 10:11:22;;;;;;;3.97;1.15;;;11.70;99.90;;;;;;5047940;28;20035;-36
2022/09/27 10:13:47;;;;;;;2.17;0.70;;;11.70;99.90;;;;;;5048652;28;20502;-35
2022/09/27 10:16:16;;;;;;;4.65;0.95;;;11.70;99.90;;;;;;5048538;28;20032;-35
2022/09/27 10:18:42;;;;;;;2.60;0.88;;;11.70;99.90;;;;;;5047855;28;20025;-35
2022/09/27 10:21:28;;;;;;;3.80;0.90;;;11.60;99.90;;;;;;5048092;28;20554;-37
2022/09/27 10:24:03;;;;;;;3.30;0.90;;;11.60;99.90;;;;;;5048342;28;20025;-36
2022/09/27 10:26:29;;;;;;;3.85;0.90;;;11.60;99.90;;;;;;5046987;28;20106;-35
2022/09/27 10:28:55;;;;;;;2.65;1.17;;;11.50;99.90;;;;;;5048451;28;20066;-36
2022/09/27 10:31:21;;;;;;;3.47;0.63;;;11.50;99.90;;;;;;5047661;28;20029;-36
2022/09/27 10:34:00;;;;;;;3.67;0.80;;;11.50;99.90;;;;;;5047357;28;20479;-36
2022/09/27 10:36:29;;;;;;;1.90;0.68;;;11.50;99.90;;;;;;5037641;28;20025;-36
2022/09/27 10:38:57;;;;;;;2.42;0.90;;;11.50;99.90;;;;;;5048258;28;20362;-37
2022/09/27 10:41:37;;;;;;;2.95;0.88;;;11.60;99.90;;;;;;5046782;28;20046;-35
2022/09/27 10:44:15;;;;;;;1.35;0.50;;;11.70;99.90;;;;;;5047521;28;20128;-36
2022/09/27 10:46:46;;;;;;;2.35;0.70;;;11.80;99.90;;;;;;5046830;28;20025;-34
2022/09/27 10:49:32;;;;;;;5.10;0.80;;;11.80;99.90;;;;;;5047260;28;20037;-36
2022/09/27 10:52:04;;;;;;;1.98;0.70;;;11.80;99.90;;;;;;5037483;28;20025;-35
2022/09/27 10:54:33;;;;;;;2.08;0.70;;;11.90;99.90;;;;;;5046044;28;20087;-35
2022/09/27 10:57:04;;;;;;;2.85;0.50;;;11.90;99.90;;;;;;5047108;28;20429;-35
2022/09/27 10:59:33;;;;;;;2.70;0.70;;;12.00;99.90;;;;;;5047036;28;20021;-35
2022/09/27 11:02:03;;;;;;;1.83;0.63;;;12.00;99.90;;;;;;5045619;28;20049;-36
2022/09/27 11:04:34;;;;;;;2.03;0.60;;;12.00;99.90;;;;;;5045748;28;20036;-36
2022/09/27 11:07:17;;;;;;;2.28;0.50;;;12.10;99.90;;;;;;5043292;28;20051;-35
2022/09/27 11:09:53;;;;;;;3.20;0.70;;;12.00;99.90;;;;;;5044108;28;20044;-35
2022/09/27 11:12:21;;;;;;;1.10;0.50;;;12.00;99.90;;;;;;5045683;28;20024;-36
2022/09/27 11:15:01;;;;;;;3.55;0.47;;;12.00;99.90;;;;;;5045680;28;20142;-35
2022/09/27 11:17:51;;;;;;;3.08;0.60;;;12.00;99.90;;;;;;5042773;28;20068;-36
2022/09/27 11:20:32;;;;;;;2.60;0.50;;;12.00;99.90;;;;;;5045396;28;20032;-35
2022/09/27 11:23:07;;;;;;;1.45;0.52;;;12.00;99.90;;;;;;5035163;28;20032;-36
2022/09/27 11:26:02;;;;;;;2.88;0.65;;;11.90;99.90;;;;;;5046428;28;20025;-35
2022/09/27 11:28:52;;;;;;;1.33;0.50;;;12.00;99.90;;;;;;5038257;28;20033;-36
2022/09/27 11:31:55;;;;;;;2.20;0.65;;;12.10;99.90;;;;;;5045365;28;20090;-36
2022/09/27 11:34:53;;;;;;;2.33;0.60;;;12.20;99.90;;;;;;5045206;28;20518;-35
2022/09/27 11:37:37;;;;;;;0.63;0.57;;;12.30;99.90;;;;;;5044427;28;20043;-35
2022/09/27 11:40:14;;;;;;;2.72;1.38;;;12.30;99.90;;;;;;5026268;28;20515;-35
2022/09/27 11:43:14;;;;;;;3.58;0.60;;;12.40;99.90;;;;;;5044060;28;20346;-35
2022/09/27 11:46:23;;;;;;;1.52;0.65;;;12.50;99.90;;;;;;5045266;28;20545;-35
2022/09/27 11:49:08;;;;;;;0.80;0.50;;;12.50;99.90;;;;;;5006007;28;20033;-35
2022/09/27 11:51:45;;;;;;;2.50;0.50;;;12.50;99.90;;;;;;5019815;28;20412;-35
2022/09/27 11:54:33;;;;;;;1.40;0.63;;;12.50;99.90;;;;;;5030970;28;20037;-35
2022/09/27 11:57:37;;;;;;;1.67;0.40;;;12.50;99.90;;;;;;5044537;28;20037;-35
2022/09/27 12:00:23;;;;;;;1.50;0.40;;;12.60;99.90;;;;;;5044509;28;20827;-35
2022/09/27 12:03:24;;;;;;;0.65;0.40;;;12.60;99.90;;;;;;5010630;28;1027044;-36
2022/09/27 12:06:08;;;;;;;2.75;0.73;;;12.60;99.90;;;;;;5026288;28;20417;-37
2022/09/27 12:09:08;;;;;;;0.73;0.40;;;12.50;99.90;;;;;;5044026;28;20084;-35
2022/09/27 12:11:52;;;;;;;1.35;0.40;;;12.40;99.90;;;;;;5044280;28;20045;-36
2022/09/27 12:14:36;;;;;;;1.75;0.40;;;12.40;99.90;;;;;;5043344;28;20020;-36
2022/09/27 12:17:05;;;;;;;1.52;0.50;;;12.50;99.90;;;;;;5045649;28;20029;-36
2022/09/27 12:19:39;;;;;;;1.30;0.40;;;12.50;99.90;;;;;;5045140;28;20029;-35
2022/09/27 12:22:10;;;;;;;1.45;0.30;;;12.50;99.90;;;;;;5045999;28;20060;-36
2022/09/27 12:24:37;;;;;;;0.77;0.40;;;12.50;99.90;;;;;;5042784;28;20128;-35
2022/09/27 12:27:14;;;;;;;0.65;0.50;;;12.50;99.90;;;;;;5045081;28;20360;-35
2022/09/27 12:29:41;;;;;;;1.63;0.40;;;12.60;99.90;;;;;;5050339;28;20032;-35
2022/09/27 12:32:21;;;;;;;1.52;0.35;;;12.60;99.90;;;;;;5044997;28;20033;-35
2022/09/27 12:35:02;;;;;;;1.00;0.40;;;12.60;99.90;;;;;;5045195;28;20048;-34
2022/09/27 12:37:49;;;;;;;2.22;0.65;;;12.60;99.90;;;;;;5045176;28;20044;-35
2022/09/27 12:40:28;;;;;;;1.52;0.47;;;12.50;99.90;;;;;;5042606;28;20036;-35
2022/09/27 12:42:58;;;;;;;0.88;0.40;;;12.50;99.90;;;;;;5046018;28;20105;-36
2022/09/27 12:46:12;;;;;;;0.68;0.40;;;12.50;99.90;;;;;;5044785;28;20037;-37
2022/09/27 12:49:04;;;;;;;0.77;0.38;;;12.60;99.90;;;;;;5008271;28;20063;-36
2022/09/27 12:52:10;;;;;;;1.08;0.30;;;12.70;99.90;;;;;;5044588;28;20029;-35
2022/09/27 12:54:56;;;;;;;0.88;0.47;;;12.70;99.90;;;;;;5032114;28;20480;-36
2022/09/27 12:57:48;;;;;;;1.10;0.65;;;12.50;99.90;;;;;;5024422;28;20469;-36
2022/09/27 13:00:20;;;;;;;1.15;0.60;;;12.50;99.90;;;;;;5041581;28;20033;-37
2022/09/27 13:02:54;;;;;;;1.42;0.57;;;12.40;99.90;;;;;;5045739;28;20102;-36
2022/09/27 13:05:54;;;;;;;2.15;0.70;;;12.30;99.90;;;;;;5044139;28;20041;-36
2022/09/27 13:08:51;;;;;;;1.25;0.55;;;12.30;99.90;;;;;;5024107;28;20040;-35
2022/09/27 13:11:52;;;;;;;1.48;0.68;;;12.20;99.90;;;;;;5044252;28;20593;-36
2022/09/27 13:14:26;;;;;;;1.15;0.65;;;12.10;99.90;;;;;;5043514;28;20035;-35
2022/09/27 13:16:52;;;;;;;2.83;1.02;;;12.10;99.90;;;;;;5044868;28;20028;-36
2022/09/27 13:19:43;;;;;;;1.02;0.63;;;12.00;99.90;;;;;;5043571;28;20025;-36
2022/09/27 13:22:26;;;;;;;0.70;0.45;;;12.00;99.90;;;;;;5034846;28;20021;-37
2022/09/27 13:24:52;;;;;;;1.65;0.60;;;11.90;99.90;;;;;;5044488;28;20049;-38
2022/09/27 13:27:27;;;;;;;1.73;0.65;;;11.80;99.90;;;;;;5044067;28;20805;-37